KLAR/LAR METAR and TAF weather

Enter ICAO airport designator
Station Type Date Time Source
KLAR METAR 2020/01/28 20:53 UTC NOAA

KLAR 282053Z AUTO 27021KT 10SM CLR 02/M10 A2999 RMK AO2 PK WND 27026/2033 WSHFT 2023 SLP164 T00171100 56018


Station Type Date Time Source
KLAR Decoded METAR 2020/01/28 20:53 UTC NOAA

LARAMIE REGIONAL AIRPORT, WY, United States (KLAR) 41-19N 105-40W 2216M
Jan 28, 2020 - 03:53 PM EST / 2020.01.28 2053 UTC
Wind: from the W (270 degrees) at 24 MPH (21 KT):0
Visibility: 10 mile(s):0
Sky conditions: clear
Temperature: 35.1 F (1.7 C)
Dew Point: 14.0 F (-10.0 C)
Relative Humidity: 41%
Pressure (altimeter): 29.99 in. Hg (1015 hPa)
Pressure tendency: 0.05 inches (1.8 hPa) lower than three hours ago
ob: KLAR 282053Z AUTO 27021KT 10SM CLR 02/M10 A2999 RMK AO2 PK WND 27026/2033 WSHFT 2023 SLP164 T00171100 56018
cycle: 21

Station Type Date Time Source
KLAR TAF 2020/01/28 18:28 UTC NOAA

TAF KLAR 281725Z 2818/2918 27015G25KT P6SM SCT150
FM290000 24011KT P6SM BKN150
FM291500 31006KT P6SM OVC045

Example: see airport list